Timeline UpdatesTrip UpdatesNews PostsPvt PostsTravel TipsAdmin PostsConv PostsFollowed PostsChat RequestsBlog PostsPNR Posts

Disclaimer
Search
 
 
Fri Jul 25, 2014 07:04:24 ISTHomeTrainsΣChainsAtlasPNRForumGalleryNewsFAQTripsMembersLoginFeedback
No Recent News for this Train
Other Trains in the News **new
Latest...
From 11.09.2013 to 9.11.2013........19024 Firozpur Janata Express will be terminated at Dadar.
Thu Sep 05, 2013 (07:07PM)
⇐ Return Journey: Train# 19023

19024/Firozpur - Mumbai Central Janta Express

Dec 24 2013 (8:25PM)
Change Departure Station:
Change Arrival Station:
Post a Train Travel TipPost a Train Travel Tip **new
Post a Comment/Question/Picture/VideoPost a Comment/Question/Picture/Video
Inaugural Run
Mon Oct 01, 1956
Pantry/Catering
✕ NO Pantry Car
✓ Catering Avbl
Catering from local vendors
RSA - Rake Sharing
Dedicated Rake.No RSA
Rake/Coach Composition
LOCO<SLR,GS,GS(MST),GS,S-1, S-2, S-3, S-4, S-5, S-6, S-7, S-8,GS,SLR,HCPV=14+1
Loco
TKD WDP-4/4B between FZR-NDLS, GZB WAP5 between NDLS-BCT
News    PNR    Forum    Time-Table    Availability    Fare Chart    Map    Arr/Dep History    Trips    Gallery    ΣChains    X/O    Timeline    
Travel Time: 7h 48m    22 halts    Distance: 316 km    Avg Speed: 40 km/hr
Type: Mail/Express
Zone: WR/Western
Departs @ 11:58
Platform# 2
SMTWTFS
Bharuch Junction/BH 
Arrives @ 19:46
Platform# 5
SMTWTFS
Mumbai Dadar Western/DDR 

22 halts. 65 intermediate Stations between Bharuch Junction and Mumbai Dadar Western

Show ALL intermediate Stations  Show Old Time-Table

#CodeStation NameX/OArrivesAvgDepartsAvgHaltPFDay#KmSpeedElevZoneAddress
1FZRFirozpur Cantt. Junction (5)  -05:10-11-1450.781200mNRFirozpur Cantt 152001, Punjab
2FDKFaridkot (3)  05:34-05:36-2m11-1418.555202mNRFaridkot, Punjab
3KKPKot Kapura Junction (3)  05:50-05:52-2m11-1405.7650mNRKotkapura, Punjab
4GJUTGangsar Jaitu (3)  06:07-06:09-2m11-1389.461207mNRJaitu, Punjab
5GNAGoneana Bhai Jagta (3)X  06:23-06:25-2m11-1375.325206mNRGoniana, Punjab
6BTIBathinda Junction (6)  06:55-07:05-10m21-1363.082208mNRBathinda, Punjab
7MAURMaur  07:31-07:33-2m--1-1327.4101220mNRMaur Mandi, Punjab
8KTKLKotli Kalan  07:39-07:41-2m--1-1317.340219mNRState Highway 12A, Punjab
9MSZMansa  07:54-07:56-2m--1-1308.774222mNRMansa, Punjab
10BLZBudhlada  08:09-08:11-2m--1-1292.671223mNRBudhlada, Punjab
11BRZBareta  08:24-08:26-2m--1-1277.250223mNRBareta, Punjab
12JHLJakhal Junction  08:43-08:45-2m--1-1263.067225mNRJakhal, Haryana
13TUNTohana (2)  08:56-08:58-2m--1-1250.876232mNRTohana, Haryana
14NRWNarwana Junction (4)  09:18-09:20-2m--1-1225.370235mNRWay to Narwana, Haryana
15UCAUchanaX  09:33-09:35-2m--1-1210.145225mNRDistrict Jind, Haryana
16JINDJind Junction (3)  10:00-10:05-5m--1-1191.470222mNR126102., Haryana
17JNAJulana  10:27-10:29-2m--1-1165.752226mNRJulana, Haryana
18ROKRohtak Junction (3)  11:05-11:08-3m--1-1134.363220mNRRohtak, Haryana
19ISMIsmaila Haryana  11:26-11:28-2m--1-1115.553221mNRNational Highway 10, Haryana
20SPZSampla  11:32-11:34-2m--1-1112.072222mNRSampla, Haryana
21BGZBahadurgarh  11:49-11:51-2m--1-1094.162220mNRBahadurgarh, Haryana
22NNONangloi  12:03-12:05-2m--1-1081.648219mNRJJ Colony No 1, Delhi NCT
23MGLPMangolpuriX  12:09-12:11-2m--1-1078.326217mNROutter Ring Rd, Delhi NCT
24SSBShakur Basti  12:21-12:23-2m--1-1074.132216mNRPitampura, Delhi NCT
25DKZDelhi KishanGanj (2)  12:36-12:38-2m--1-1067.19220mNRSarai Rohilla, Delhi NCT
26NDLSNew Delhi (16)X13:05-13:35-30m71-1063.332215mNRNew Delhi, Delhi NCT
27NZMDelhi Hazrat Nizamuddin (7)XO  13:49-13:51-2m11-1055.937209mNRNizamuddin East/Sarai KaleKhan Bus Terminal, Delhi NCT
28OKAOkhla (4)X  13:57-13:59-2m--1-1052.252221mNRIshwar Nagar Mathura Road, Delhi NCT
29TKDTuglakabad (4)XO  14:06-14:08-2m11-1046.244213mNRNear Tughlakabad Metro Station, Delhi NCT
30FDBFaridabad (4)  14:23-14:25-2m31-1035.127206mNRold Faridabad, Haryana
31BVHBallabgarh (5)O  14:43-14:45-2m--1-1027.039203mNRFaridabad, Haryana
32PWLPalwal (8)  15:18-15:20-2m--1-1005.885200mNRPalwal, Haryana
33KSVKosi Kalan (3)XO  15:50-15:52-2m21-963.456189mNCRKosi Kalan, Uttar Pradesh
34CHJChata (4)X  16:03-16:05-2m--1-953.134185mNCRChhata, Uttar Pradesh
35MTJMathura Junction (10)  17:00-17:05-5m31-921.980179mNCRMathura, Uttar Pradesh
36BTEBharatpur Junction (5)O  17:30-17:35-5m31-888.472174mWCRBharatpur, Rajasthan
37BXNBayana Junction (3)X  18:10-18:15-5m--1-846.491198mWCRBayana, Rajasthan
38FSPFateh SinghpuraX  18:28-18:30-2m--1-826.744223mWCRState Highway 1, Rajasthan
39HANHindaun City (2)  18:48-18:50-2m--1-813.561230mWCRKarauli, Rajasthan
40SMBJShri Mahabirji (3)XO  19:00-19:02-2m--1-803.443240mWCRKarauli, Rajasthan
41GGCGangapur City (3)  19:50-19:55-5m21-769.364270mWCRGangapur, Rajasthan
42NNWNarayanpur Tatwara (2)OT20:11-20:12-1m--1-752.336256mWCRSawai Madhopur, Rajasthan
43MLZMalarna  20:40-20:42-2m21-735.579236mWCRSawai Madhopur, Rajasthan
44SWMSawai Madhopur Junction (4)X  21:05-21:10-5m21-705.487266mWCRSawai Madhopur, Rajasthan
45IDGIndargarh Sumerganj Mandi (2)  21:35-21:37-2m--1-669.166247mWCRIndargarh, Rajasthan
46LKELakheri (3)X  21:47-21:49-2m--1-658.145228mWCRBundi, Rajasthan
47KOTAKota Junction (5)  23:10-23:20-10m21-597.568256mWCRKota, Rajasthan
48RMARamganj Mandi Junction (3)X  00:23-00:25-2m--2-526.357358mWCRRamganj Mandi, Rajasthan
49JHWJhalawar Road (3)XO  00:38-00:40-2m--2-513.930361mWCRJhalawar City, Rajasthan
50BWMBhawani Mandi (3)X  01:13-01:15-2m--2-497.474384mWCRBhawani Mandi, Madhya Pradesh
51SGZShamgarh (3)X  01:42-01:47-5m--2-463.950463mWCRMandsaur, Madhya Pradesh
52SVASuwasra (2)O  02:03-02:05-2m--2-450.540450mWCRSuwasra, Madhya Pradesh
53CMUChau Mahla (3)  02:28-02:30-2m12-435.120426mWCRJhalawar, Rajasthan
54VMAVikramgarh Alot (2)X  03:36-03:38-2m12-413.341443mWCRKota Division, Madhya Pradesh
55MEPMahidpur Road  04:13-04:15-2m--2-389.441493mWCRGogapur, Madhya Pradesh
56NADNagda Junction (4)X  04:40-04:45-5m--2-372.475468mWRNagda, Madhya Pradesh
57KUHKhachrod (2)X  04:56-04:58-2m--2-358.635497mWRUjjain, Madhya Pradesh
58RTMRatlam Junction (7)X  05:45-06:00-15m42-330.977495mWRRatlam, Madhya Pradesh
59BMIBamnia (2)X  06:35-06:37-2m--2-286.275392mWRBamnia, Madhya Pradesh
60THDRThandla Road (2)  06:59-07:01-2m--2-258.668317mWRJhabua, Madhya Pradesh
61MGNMeghnagar (3)  07:08-07:10-2m--2-250.680317mWRJhabua, Madhya Pradesh
62DHDDahod (3)X  07:35-07:40-5m--2-217.573313mWRDahod, Gujarat
63LMKLimkheda  08:07-08:09-2m--2-184.668205mWRLimkheda, Gujarat
64PPDPiplod Junction  08:16-08:18-2m--2-176.689209mWRPiplod, Gujarat
65SATSant Road (2)X  08:26-08:28-2m22-164.820169mWROrwara, Gujarat
66GDAGodhra Junction (3)X  09:29-09:34-5m12-144.474122mWRGodhra, Gujarat
67DRLDerol  09:53-09:55-2m--2-120.87981mWRKalol, Gujarat
68SMLASamlaya Junction (3)  10:13-10:15-2m--2-97.15367mWRVadodara, Gujarat
69BRCVadodara Junction (7)X10:45-10:55-10m12-70.58936mWRVadodara 390005, Gujarat
70MYGMiyagam Karjan (2)  11:15-11:17-2m22-40.78329mWRKarjan, Gujarat
71PLJPalej (4)  11:28-11:30-2m--2-25.48029mWRPalej, Gujarat
72NIUNabipur (3)XT11:40-11:42-2m--2-12.15224mWRNabipur, Gujarat
73BH»Bharuch Junction (5)»  11:56-11:58-2m220.06219mWRBharuch, Gujarat
74AKVAnkleshwar Junction (4)O  12:07-12:09-2m229.34819mWRAnkleshwar, Gujarat
75PAOPanoli (3)T12:22-12:24-2m--219.66229mWRPanoli, Gujarat
76KSBKosamba Junction (3)XO  12:32-12:34-2m2227.95830mWRKosamba, Gujarat
77KIMKim (2)T12:42-12:44-2m2235.73118mWRNH 8, Gujarat
78STSurat (4)X  13:30-13:35-5m2259.37119mWRSurat 395001, Gujarat
79MRLMaroli (3)  13:53-13:55-2m2280.44615mWRMaroli, Gujarat
80NVSNavsari (3)  14:06-14:08-2m2288.95514mWRNavsari, Gujarat
81AMLAmalsad (3)  14:25-14:27-2m22104.53712mWRAmalsad, Gujarat
82BIMBilimora Junction (4)XO  14:36-14:38-2m22110.13611mWRBilimora, Gujarat
83BLValsad (3)X  15:08-15:10-2m32128.04615mWRValsad, Gujarat
84PADPardi (3)XT15:24-15:26-2m--2138.75119mWRValsad, Gujarat
85UVDUdvada (3)T15:33-15:35-2m--2144.65218mWRUdvada, Gujarat
86VAPIVapi (3)XO  15:46-15:48-2m22154.23427mWRVapi, Gujarat
87BLDBhilad (3)XO  16:08-16:10-2m--2165.56933mWRBhilad, Gujarat
88SJNSanjan (3)XO  16:20-16:22-2m--2177.15422mWRSanjan, Gujarat
89UBRUmbargam Road (3)XO  16:28-16:30-2m--2182.44730mWRUmbergaon, Gujarat
90DRDDahanu Road (5)X  16:56-16:58-2m--2202.77412mWRDahanu, Maharashtra
91VGNVangaon (3)XO  17:08-17:10-2m--2215.07111mWRThane, Maharashtra
92BORBoisar (3)XO  17:18-17:20-2m32224.56117mWRBoisar Tel.no-02525-266626, Maharashtra
93PLGPalghar (3)XO  17:31-17:33-2m22235.75719mWRPalghar, Maharashtra
94VRVirar (8)XO  18:06-18:08-2m42266.9526mWRThane, Maharashtra
95BVIMumbai Borivali (8)  18:38-18:40-2m52292.72219mWRMumbai - 400092, Maharashtra
96DDR•Mumbai Dadar Western (6)•  19:46-19:48-2m52316.4166mWRMumbai, Maharashtra
97BCTMumbai Central (9)  20:10--52322.4-3mWRMumbai 400008, Maharashtra
Scroll to Top
Scroll to Bottom